Allyn, WA

3:26 AM PDT on September 19, 2014 (GMT -0700)
Tacoma | Change Station
CLOSE
Current Station
Airport
Location: Tacoma,
Elevation: 322 ft
Nearby Weather Stations

Elev 322 ft 47.14 °N, 122.48 °W | Updated 28 minutes ago

Overcast
Overcast
62 °F
Feels Like 62 °F
N
7
Wind Variable Wind from SSW

Today
High -- | Low -- °F
--% Chance of Precip.
Yesterday
High -- | Low -- °F
Precip. -- in
6:54 AM 7:15 PM
Waning Crescent, 20% visible
Pressure 30.02 in
Visibility 10.0 miles
Clouds Overcast 4600 ft
Dew Point 59 °F
Humidity 90%
Rainfall 0.00 in
Snow Depth 0 in , 0 in , 0 in
UV 0 out of 12
Pollen .40 out of 12
PM2.5 Good
Flu Activity Not available.
METAR KTCM 190958Z AUTO 20006KT 10SM OVC046 16/15 A3001 RMK AO2 SLP165 T01640148 $

More Conditions Fewer Conditions

Pressure 30.02 in
Visibility 10.0 miles
Clouds Overcast 4600 ft
Dew Point 59 °F
Humidity 90%
Rainfall 0.00 in
Snow Depth 0 in , 0 in , 0 in
UV 0 out of 12
Pollen .40 out of 12
PM2.5 Good
Flu Activity Not available.
METAR KTCM 190958Z AUTO 20006KT 10SM OVC046 16/15 A3001 RMK AO2 SLP165 T01640148 $

More Conditions Fewer Conditions

10-Day Weather Forecast

Almanac

Astronomy

Sep. 19, 2014 Rise Set
Actual Time 6:54 AM PDT 7:15 PM PDT
Civil Twilight 6:23 AM PDT 7:45 PM PDT
Nautical Twilight 5:47 AM PDT 8:21 PM PDT
Astronomical Twilight 5:09 AM PDT 8:59 PM PDT
Moon 2:30 AM PDT 4:58 PM PDT
Length of Visible Light 13h 22m
Length of Day
12h 20m
Tomorrow will be 3m 22s shorter.
Waning Crescent, 20% of the Moon is Illuminated
Today
Waning Crescent
Sep 24
New
Oct 1
First Quarter
Oct 8
Full
Oct 15
Last Quarter

Today's Extremes

State Highs State Lows

Community

WunderPhotos

Upload Photos

1,754,583 photos uploaded!

Nearby

Air Quality

  Air Quality AQ Index Pollutant
Yesterday Good
OZONE
Yesterday Good
PM2.5
Current Good
PM2.5

Snow Depth

Station Depth Elevation
Touchet 0 in 5530 ft
Mount Gardner 0 in 3000 ft
Bunchgrass Meadow 0 in 5000 ft
White Pass E.S. 0 in 4500 ft
Surprise Lakes 0 in 4250 ft

Earthquake Activity

City Distance Mag. Time & Date
Seabeck, Washington 15 miles 4.0 3:06 AM PDT
2014-09-17
Morton, Washington 75 miles 3.0 5:43 AM PDT
2014-09-16
Minimum magnitude displayed is 2.5.

Coastal Water Temperatures

Place Temperature
Port Townsend, WA 53.1 °F
Seattle, WA 55.9 °F
Friday Harbor, WA 53.1 °F
Tacoma, WA 55.9 °F

Nearby Weather Stations